sensor_id;sensor_type;location;lat;lon;timestamp;P1;durP1;ratioP1;P2;durP2;ratioP2
35679;SDS011;21803;53.586;10.040;2023-07-24T04:02:13;1.65;;;1.50;;
35679;SDS011;21803;53.586;10.040;2023-07-24T04:04:38;1.48;;;1.15;;
35679;SDS011;21803;53.586;10.040;2023-07-24T04:07:04;1.48;;;1.20;;
35679;SDS011;21803;53.586;10.040;2023-07-24T04:09:30;1.30;;;1.20;;
35679;SDS011;21803;53.586;10.040;2023-07-24T04:11:55;1.10;;;1.00;;
35679;SDS011;21803;53.586;10.040;2023-07-24T04:14:21;1.30;;;1.10;;
35679;SDS011;21803;53.586;10.040;2023-07-24T04:16:46;1.55;;;1.27;;
35679;SDS011;21803;53.586;10.040;2023-07-24T04:19:12;1.40;;;1.25;;
35679;SDS011;21803;53.586;10.040;2023-07-24T04:21:38;1.67;;;1.20;;
35679;SDS011;21803;53.586;10.040;2023-07-24T04:24:03;1.73;;;1.20;;
35679;SDS011;21803;53.586;10.040;2023-07-24T04:26:29;1.25;;;1.15;;
35679;SDS011;21803;53.586;10.040;2023-07-24T04:28:54;1.30;;;1.20;;
35679;SDS011;21803;53.586;10.040;2023-07-24T04:31:20;1.77;;;1.27;;
35679;SDS011;21803;53.586;10.040;2023-07-24T04:33:45;1.55;;;1.15;;
35679;SDS011;21803;53.586;10.040;2023-07-24T04:36:11;1.23;;;1.10;;
35679;SDS011;21803;53.586;10.040;2023-07-24T04:38:36;1.30;;;1.20;;
35679;SDS011;21803;53.586;10.040;2023-07-24T04:41:02;1.10;;;1.00;;
35679;SDS011;21803;53.586;10.040;2023-07-24T04:43:28;1.17;;;1.02;;
35679;SDS011;21803;53.586;10.040;2023-07-24T04:45:54;1.63;;;1.30;;
35679;SDS011;21803;53.586;10.040;2023-07-24T04:48:20;1.67;;;1.15;;
35679;SDS011;21803;53.586;10.040;2023-07-24T04:50:45;1.77;;;1.50;;
35679;SDS011;21803;53.586;10.040;2023-07-24T04:53:11;1.60;;;1.30;;
35679;SDS011;21803;53.586;10.040;2023-07-24T04:55:36;1.35;;;1.20;;
35679;SDS011;21803;53.586;10.040;2023-07-24T04:58:02;2.03;;;1.27;;
35679;SDS011;21803;53.586;10.040;2023-07-24T05:00:27;1.73;;;1.40;;
35679;SDS011;21803;53.586;10.040;2023-07-24T05:02:53;1.35;;;1.20;;
35679;SDS011;21803;53.586;10.040;2023-07-24T05:05:18;1.67;;;1.50;;
35679;SDS011;21803;53.586;10.040;2023-07-24T05:07:44;1.52;;;1.20;;
35679;SDS011;21803;53.586;10.040;2023-07-24T05:10:10;2.20;;;1.23;;
35679;SDS011;21803;53.586;10.040;2023-07-24T05:12:35;1.30;;;1.20;;
35679;SDS011;21803;53.586;10.040;2023-07-24T05:15:01;1.40;;;1.20;;
35679;SDS011;21803;53.586;10.040;2023-07-24T05:17:27;1.27;;;1.10;;
35679;SDS011;21803;53.586;10.040;2023-07-24T05:19:52;1.45;;;1.30;;
35679;SDS011;21803;53.586;10.040;2023-07-24T05:22:18;1.33;;;1.23;;
35679;SDS011;21803;53.586;10.040;2023-07-24T05:24:43;1.35;;;1.20;;
35679;SDS011;21803;53.586;10.040;2023-07-24T05:27:09;1.73;;;1.27;;
35679;SDS011;21803;53.586;10.040;2023-07-24T05:29:34;1.42;;;1.20;;
35679;SDS011;21803;53.586;10.040;2023-07-24T05:32:00;1.27;;;1.17;;
35679;SDS011;21803;53.586;10.040;2023-07-24T05:34:26;1.40;;;1.30;;
35679;SDS011;21803;53.586;10.040;2023-07-24T05:36:51;1.60;;;1.20;;
35679;SDS011;21803;53.586;10.040;2023-07-24T05:39:17;1.35;;;1.05;;
35679;SDS011;21803;53.586;10.040;2023-07-24T05:41:42;1.83;;;1.38;;
35679;SDS011;21803;53.586;10.040;2023-07-24T05:44:07;2.38;;;1.30;;
35679;SDS011;21803;53.586;10.040;2023-07-24T05:46:33;1.67;;;1.40;;
35679;SDS011;21803;53.586;10.040;2023-07-24T05:48:59;1.83;;;1.40;;
35679;SDS011;21803;53.586;10.040;2023-07-24T05:51:27;1.67;;;1.48;;
35679;SDS011;21803;53.586;10.040;2023-07-24T05:53:53;1.50;;;1.10;;
35679;SDS011;21803;53.586;10.040;2023-07-24T05:56:18;1.30;;;1.15;;
35679;SDS011;21803;53.586;10.040;2023-07-24T05:58:44;1.70;;;1.38;;
35679;SDS011;21803;53.586;10.040;2023-07-24T06:01:09;1.63;;;1.30;;
35679;SDS011;21803;53.586;10.040;2023-07-24T06:03:35;1.38;;;1.27;;
35679;SDS011;21803;53.586;10.040;2023-07-24T06:06:01;1.48;;;1.38;;
35679;SDS011;21803;53.586;10.040;2023-07-24T06:08:27;1.60;;;1.40;;
35679;SDS011;21803;53.586;10.040;2023-07-24T06:10:52;1.90;;;1.30;;
35679;SDS011;21803;53.586;10.040;2023-07-24T06:13:18;1.50;;;1.20;;
35679;SDS011;21803;53.586;10.040;2023-07-24T06:15:44;1.63;;;1.30;;
35679;SDS011;21803;53.586;10.040;2023-07-24T06:18:12;1.45;;;1.35;;
35679;SDS011;21803;53.586;10.040;2023-07-24T06:20:37;1.60;;;1.50;;
35679;SDS011;21803;53.586;10.040;2023-07-24T06:23:03;1.50;;;1.40;;
35679;SDS011;21803;53.586;10.040;2023-07-24T06:25:29;1.45;;;1.20;;
35679;SDS011;21803;53.586;10.040;2023-07-24T06:27:55;1.35;;;1.15;;
35679;SDS011;21803;53.586;10.040;2023-07-24T06:30:21;2.03;;;1.42;;
35679;SDS011;21803;53.586;10.040;2023-07-24T06:32:47;1.75;;;1.48;;
35679;SDS011;21803;53.586;10.040;2023-07-24T06:35:12;1.27;;;1.17;;
35679;SDS011;21803;53.586;10.040;2023-07-24T06:37:38;1.60;;;1.30;;
35679;SDS011;21803;53.586;10.040;2023-07-24T06:40:04;1.50;;;1.10;;
35679;SDS011;21803;53.586;10.040;2023-07-24T06:42:31;1.58;;;1.40;;
35679;SDS011;21803;53.586;10.040;2023-07-24T06:44:56;1.40;;;1.15;;
35679;SDS011;21803;53.586;10.040;2023-07-24T06:47:22;1.55;;;1.30;;
35679;SDS011;21803;53.586;10.040;2023-07-24T06:49:47;1.52;;;1.40;;
35679;SDS011;21803;53.586;10.040;2023-07-24T06:52:13;1.92;;;1.50;;
35679;SDS011;21803;53.586;10.040;2023-07-24T06:54:38;1.48;;;1.10;;
35679;SDS011;21803;53.586;10.040;2023-07-24T06:57:04;1.50;;;1.20;;
35679;SDS011;21803;53.586;10.040;2023-07-24T06:59:29;1.20;;;1.10;;
35679;SDS011;21803;53.586;10.040;2023-07-24T07:01:55;1.38;;;1.20;;
35679;SDS011;21803;53.586;10.040;2023-07-24T07:04:20;1.63;;;1.30;;
35679;SDS011;21803;53.586;10.040;2023-07-24T07:06:46;1.50;;;1.38;;
35679;SDS011;21803;53.586;10.040;2023-07-24T07:09:11;1.70;;;1.30;;
35679;SDS011;21803;53.586;10.040;2023-07-24T07:11:37;1.50;;;1.30;;
35679;SDS011;21803;53.586;10.040;2023-07-24T07:14:03;2.05;;;1.50;;
35679;SDS011;21803;53.586;10.040;2023-07-24T07:16:29;1.83;;;1.52;;
35679;SDS011;21803;53.586;10.040;2023-07-24T07:18:54;1.30;;;1.20;;
35679;SDS011;21803;53.586;10.040;2023-07-24T07:21:20;1.80;;;1.50;;
35679;SDS011;21803;53.586;10.040;2023-07-24T07:23:45;1.95;;;1.60;;
35679;SDS011;21803;53.586;10.040;2023-07-24T07:26:11;1.88;;;1.60;;
35679;SDS011;21803;53.586;10.040;2023-07-24T07:28:36;1.63;;;1.50;;
35679;SDS011;21803;53.586;10.040;2023-07-24T07:31:02;1.17;;;1.05;;
35679;SDS011;21803;53.586;10.040;2023-07-24T07:33:28;1.90;;;1.50;;
35679;SDS011;21803;53.586;10.040;2023-07-24T07:35:54;1.60;;;1.35;;
35679;SDS011;21803;53.586;10.040;2023-07-24T07:38:20;1.70;;;1.30;;
35679;SDS011;21803;53.586;10.040;2023-07-24T07:40:47;1.42;;;1.20;;
35679;SDS011;21803;53.586;10.040;2023-07-24T07:43:13;1.85;;;1.40;;
35679;SDS011;21803;53.586;10.040;2023-07-24T07:45:38;2.25;;;1.40;;
35679;SDS011;21803;53.586;10.040;2023-07-24T07:48:04;1.70;;;1.58;;
35679;SDS011;21803;53.586;10.040;2023-07-24T07:50:30;1.30;;;1.10;;
35679;SDS011;21803;53.586;10.040;2023-07-24T07:52:55;1.50;;;1.40;;
35679;SDS011;21803;53.586;10.040;2023-07-24T07:55:21;1.50;;;1.40;;
35679;SDS011;21803;53.586;10.040;2023-07-24T07:57:46;1.60;;;1.50;;
35679;SDS011;21803;53.586;10.040;2023-07-24T08:00:12;1.63;;;1.30;;
35679;SDS011;21803;53.586;10.040;2023-07-24T08:02:38;1.50;;;1.33;;
35679;SDS011;21803;53.586;10.040;2023-07-24T08:05:07;1.90;;;1.50;;
35679;SDS011;21803;53.586;10.040;2023-07-24T08:07:34;1.40;;;1.27;;
35679;SDS011;21803;53.586;10.040;2023-07-24T08:10:00;1.55;;;1.40;;
35679;SDS011;21803;53.586;10.040;2023-07-24T08:12:25;1.60;;;1.48;;
35679;SDS011;21803;53.586;10.040;2023-07-24T08:14:51;1.52;;;1.42;;
35679;SDS011;21803;53.586;10.040;2023-07-24T08:17:16;1.77;;;1.40;;
35679;SDS011;21803;53.586;10.040;2023-07-24T08:19:42;1.55;;;1.45;;
35679;SDS011;21803;53.586;10.040;2023-07-24T08:22:07;1.85;;;1.50;;
35679;SDS011;21803;53.586;10.040;2023-07-24T08:24:33;1.40;;;1.30;;
35679;SDS011;21803;53.586;10.040;2023-07-24T08:27:02;1.40;;;1.30;;
35679;SDS011;21803;53.586;10.040;2023-07-24T08:29:28;1.33;;;1.23;;
35679;SDS011;21803;53.586;10.040;2023-07-24T08:31:53;1.40;;;1.20;;
35679;SDS011;21803;53.586;10.040;2023-07-24T08:34:19;1.65;;;1.55;;
35679;SDS011;21803;53.586;10.040;2023-07-24T08:36:44;1.90;;;1.40;;
35679;SDS011;21803;53.586;10.040;2023-07-24T08:39:10;1.70;;;1.60;;
35679;SDS011;21803;53.586;10.040;2023-07-24T08:41:36;1.98;;;1.40;;
35679;SDS011;21803;53.586;10.040;2023-07-24T08:44:03;1.83;;;1.55;;
35679;SDS011;21803;53.586;10.040;2023-07-24T08:46:38;1.65;;;1.40;;
35679;SDS011;21803;53.586;10.040;2023-07-24T08:49:06;1.65;;;1.55;;
35679;SDS011;21803;53.586;10.040;2023-07-24T08:51:36;1.50;;;1.40;;
35679;SDS011;21803;53.586;10.040;2023-07-24T08:54:03;1.42;;;1.30;;
35679;SDS011;21803;53.586;10.040;2023-07-24T08:56:30;1.95;;;1.50;;
35679;SDS011;21803;53.586;10.040;2023-07-24T08:58:56;1.67;;;1.58;;
35679;SDS011;21803;53.586;10.040;2023-07-24T09:01:21;1.85;;;1.38;;
35679;SDS011;21803;53.586;10.040;2023-07-24T09:03:47;1.70;;;1.40;;
35679;SDS011;21803;53.586;10.040;2023-07-24T09:06:12;1.73;;;1.48;;
35679;SDS011;21803;53.586;10.040;2023-07-24T09:08:39;2.40;;;1.95;;
35679;SDS011;21803;53.586;10.040;2023-07-24T09:11:06;2.05;;;1.60;;
35679;SDS011;21803;53.586;10.040;2023-07-24T09:13:34;1.80;;;1.60;;
35679;SDS011;21803;53.586;10.040;2023-07-24T09:16:01;1.70;;;1.50;;
35679;SDS011;21803;53.586;10.040;2023-07-24T09:18:27;1.75;;;1.40;;
35679;SDS011;21803;53.586;10.040;2023-07-24T09:21:04;1.70;;;1.60;;
35679;SDS011;21803;53.586;10.040;2023-07-24T09:23:29;1.50;;;1.40;;
35679;SDS011;21803;53.586;10.040;2023-07-24T09:25:55;1.80;;;1.65;;
35679;SDS011;21803;53.586;10.040;2023-07-24T09:28:20;2.20;;;1.60;;
35679;SDS011;21803;53.586;10.040;2023-07-24T09:30:53;1.73;;;1.52;;
35679;SDS011;21803;53.586;10.040;2023-07-24T09:33:24;1.67;;;1.45;;
35679;SDS011;21803;53.586;10.040;2023-07-24T09:36:00;1.70;;;1.60;;
35679;SDS011;21803;53.586;10.040;2023-07-24T09:38:26;2.17;;;1.42;;
35679;SDS011;21803;53.586;10.040;2023-07-24T09:40:52;1.70;;;1.50;;
35679;SDS011;21803;53.586;10.040;2023-07-24T09:43:19;1.85;;;1.63;;
35679;SDS011;21803;53.586;10.040;2023-07-24T09:45:46;1.60;;;1.50;;
35679;SDS011;21803;53.586;10.040;2023-07-24T09:48:13;2.00;;;1.70;;
35679;SDS011;21803;53.586;10.040;2023-07-24T09:50:44;1.98;;;1.50;;
35679;SDS011;21803;53.586;10.040;2023-07-24T09:55:57;2.10;;;1.77;;
35679;SDS011;21803;53.586;10.040;2023-07-24T09:58:22;2.17;;;1.80;;
35679;SDS011;21803;53.586;10.040;2023-07-24T10:00:50;2.08;;;1.85;;
35679;SDS011;21803;53.586;10.040;2023-07-24T10:03:16;2.20;;;1.92;;
35679;SDS011;21803;53.586;10.040;2023-07-24T10:05:46;2.55;;;2.03;;
35679;SDS011;21803;53.586;10.040;2023-07-24T10:08:16;2.10;;;1.90;;
35679;SDS011;21803;53.586;10.040;2023-07-24T10:10:43;2.38;;;1.92;;
35679;SDS011;21803;53.586;10.040;2023-07-24T10:13:10;4.22;;;2.40;;
35679;SDS011;21803;53.586;10.040;2023-07-24T10:15:38;2.50;;;2.30;;
35679;SDS011;21803;53.586;10.040;2023-07-24T10:18:06;3.05;;;2.30;;
35679;SDS011;21803;53.586;10.040;2023-07-24T10:20:39;2.40;;;2.10;;
35679;SDS011;21803;53.586;10.040;2023-07-24T10:23:06;3.17;;;2.30;;
35679;SDS011;21803;53.586;10.040;2023-07-24T10:25:33;3.42;;;2.85;;
35679;SDS011;21803;53.586;10.040;2023-07-24T10:28:06;2.88;;;2.50;;
35679;SDS011;21803;53.586;10.040;2023-07-24T10:30:35;4.45;;;2.53;;
35679;SDS011;21803;53.586;10.040;2023-07-24T10:33:05;3.38;;;2.50;;
35679;SDS011;21803;53.586;10.040;2023-07-24T10:35:38;2.90;;;2.60;;
35679;SDS011;21803;53.586;10.040;2023-07-24T10:38:12;3.65;;;2.58;;
35679;SDS011;21803;53.586;10.040;2023-07-24T10:40:39;3.35;;;2.53;;
35679;SDS011;21803;53.586;10.040;2023-07-24T10:43:07;3.28;;;2.63;;
35679;SDS011;21803;53.586;10.040;2023-07-24T10:48:06;3.00;;;2.60;;
35679;SDS011;21803;53.586;10.040;2023-07-24T10:50:42;4.43;;;2.67;;
35679;SDS011;21803;53.586;10.040;2023-07-24T10:53:09;3.72;;;2.70;;
35679;SDS011;21803;53.586;10.040;2023-07-24T10:55:36;4.25;;;2.45;;
35679;SDS011;21803;53.586;10.040;2023-07-24T10:58:01;3.15;;;2.72;;
35679;SDS011;21803;53.586;10.040;2023-07-24T11:00:27;4.03;;;2.72;;
35679;SDS011;21803;53.586;10.040;2023-07-24T11:02:53;3.55;;;2.53;;
35679;SDS011;21803;53.586;10.040;2023-07-24T11:05:23;3.33;;;2.58;;
35679;SDS011;21803;53.586;10.040;2023-07-24T11:07:49;3.00;;;2.67;;
35679;SDS011;21803;53.586;10.040;2023-07-24T11:10:18;2.72;;;2.40;;
35679;SDS011;21803;53.586;10.040;2023-07-24T11:12:45;3.10;;;2.50;;
35679;SDS011;21803;53.586;10.040;2023-07-24T11:15:11;2.78;;;2.42;;
35679;SDS011;21803;53.586;10.040;2023-07-24T11:17:38;3.58;;;2.88;;
35679;SDS011;21803;53.586;10.040;2023-07-24T11:20:06;2.42;;;2.22;;
35679;SDS011;21803;53.586;10.040;2023-07-24T11:22:33;3.45;;;2.47;;
35679;SDS011;21803;53.586;10.040;2023-07-24T11:24:58;6.85;;;2.65;;
35679;SDS011;21803;53.586;10.040;2023-07-24T11:27:26;5.30;;;2.90;;
35679;SDS011;21803;53.586;10.040;2023-07-24T11:29:51;4.65;;;2.53;;
35679;SDS011;21803;53.586;10.040;2023-07-24T11:32:18;2.58;;;2.22;;
35679;SDS011;21803;53.586;10.040;2023-07-24T11:34:44;3.08;;;2.20;;
35679;SDS011;21803;53.586;10.040;2023-07-24T11:37:11;3.97;;;2.40;;
35679;SDS011;21803;53.586;10.040;2023-07-24T11:39:36;2.80;;;2.42;;
35679;SDS011;21803;53.586;10.040;2023-07-24T11:42:02;3.42;;;2.70;;
35679;SDS011;21803;53.586;10.040;2023-07-24T11:44:28;2.70;;;2.25;;
35679;SDS011;21803;53.586;10.040;2023-07-24T11:47:03;2.50;;;2.30;;
35679;SDS011;21803;53.586;10.040;2023-07-24T11:49:30;2.80;;;2.50;;
35679;SDS011;21803;53.586;10.040;2023-07-24T11:52:00;4.10;;;2.55;;
35679;SDS011;21803;53.586;10.040;2023-07-24T11:54:30;3.80;;;2.53;;
35679;SDS011;21803;53.586;10.040;2023-07-24T11:56:56;2.75;;;2.17;;
35679;SDS011;21803;53.586;10.040;2023-07-24T11:59:22;2.50;;;2.17;;
35679;SDS011;21803;53.586;10.040;2023-07-24T12:01:49;2.55;;;2.33;;
35679;SDS011;21803;53.586;10.040;2023-07-24T12:04:15;3.28;;;2.00;;
35679;SDS011;21803;53.586;10.040;2023-07-24T12:06:41;2.65;;;2.28;;
35679;SDS011;21803;53.586;10.040;2023-07-24T12:09:07;4.15;;;2.20;;
35679;SDS011;21803;53.586;10.040;2023-07-24T12:11:38;2.95;;;1.85;;
35679;SDS011;21803;53.586;10.040;2023-07-24T12:14:06;2.45;;;2.00;;
35679;SDS011;21803;53.586;10.040;2023-07-24T12:16:33;2.70;;;2.00;;
35679;SDS011;21803;53.586;10.040;2023-07-24T12:18:59;3.10;;;2.20;;
35679;SDS011;21803;53.586;10.040;2023-07-24T12:21:24;3.13;;;2.22;;
35679;SDS011;21803;53.586;10.040;2023-07-24T12:23:50;2.53;;;1.98;;
35679;SDS011;21803;53.586;10.040;2023-07-24T12:26:15;2.20;;;2.00;;
35679;SDS011;21803;53.586;10.040;2023-07-24T12:28:41;2.13;;;1.70;;
35679;SDS011;21803;53.586;10.040;2023-07-24T12:31:06;2.20;;;1.90;;
35679;SDS011;21803;53.586;10.040;2023-07-24T12:33:32;2.22;;;1.92;;
35679;SDS011;21803;53.586;10.040;2023-07-24T12:35:57;2.22;;;2.00;;
35679;SDS011;21803;53.586;10.040;2023-07-24T12:38:23;2.55;;;2.10;;
35679;SDS011;21803;53.586;10.040;2023-07-24T12:40:48;2.75;;;1.83;;
35679;SDS011;21803;53.586;10.040;2023-07-24T12:43:14;2.30;;;1.90;;
35679;SDS011;21803;53.586;10.040;2023-07-24T12:45:40;2.47;;;1.80;;
35679;SDS011;21803;53.586;10.040;2023-07-24T12:48:06;2.33;;;1.90;;
35679;SDS011;21803;53.586;10.040;2023-07-24T12:50:31;2.90;;;2.20;;
35679;SDS011;21803;53.586;10.040;2023-07-24T12:52:57;3.08;;;1.90;;
35679;SDS011;21803;53.586;10.040;2023-07-24T12:55:23;2.15;;;1.70;;
35679;SDS011;21803;53.586;10.040;2023-07-24T12:57:48;2.28;;;1.90;;
35679;SDS011;21803;53.586;10.040;2023-07-24T13:00:14;3.15;;;1.98;;
35679;SDS011;21803;53.586;10.040;2023-07-24T13:02:40;2.30;;;1.52;;
35679;SDS011;21803;53.586;10.040;2023-07-24T13:05:05;2.33;;;1.90;;
35679;SDS011;21803;53.586;10.040;2023-07-24T13:07:31;3.25;;;1.90;;
35679;SDS011;21803;53.586;10.040;2023-07-24T13:09:56;2.22;;;1.80;;
35679;SDS011;21803;53.586;10.040;2023-07-24T13:12:22;3.08;;;2.10;;
35679;SDS011;21803;53.586;10.040;2023-07-24T13:14:47;2.38;;;1.95;;
35679;SDS011;21803;53.586;10.040;2023-07-24T13:17:13;2.25;;;1.83;;
35679;SDS011;21803;53.586;10.040;2023-07-24T13:19:38;2.25;;;1.90;;
35679;SDS011;21803;53.586;10.040;2023-07-24T13:22:04;2.22;;;1.88;;
35679;SDS011;21803;53.586;10.040;2023-07-24T13:24:30;3.15;;;2.05;;
35679;SDS011;21803;53.586;10.040;2023-07-24T13:26:55;2.00;;;1.67;;
35679;SDS011;21803;53.586;10.040;2023-07-24T13:29:21;2.35;;;1.98;;
35679;SDS011;21803;53.586;10.040;2023-07-24T13:31:46;2.47;;;1.90;;
35679;SDS011;21803;53.586;10.040;2023-07-24T13:34:12;1.98;;;1.77;;
35679;SDS011;21803;53.586;10.040;2023-07-24T13:36:37;2.20;;;1.90;;
35679;SDS011;21803;53.586;10.040;2023-07-24T13:39:03;3.60;;;2.10;;
35679;SDS011;21803;53.586;10.040;2023-07-24T13:41:28;2.30;;;1.70;;
35679;SDS011;21803;53.586;10.040;2023-07-24T13:43:54;1.85;;;1.63;;
35679;SDS011;21803;53.586;10.040;2023-07-24T13:46:20;3.05;;;1.90;;
35679;SDS011;21803;53.586;10.040;2023-07-24T13:48:45;2.42;;;2.00;;
35679;SDS011;21803;53.586;10.040;2023-07-24T13:51:11;2.38;;;1.70;;
35679;SDS011;21803;53.586;10.040;2023-07-24T13:53:36;2.22;;;1.77;;
35679;SDS011;21803;53.586;10.040;2023-07-24T13:56:02;2.47;;;1.90;;
35679;SDS011;21803;53.586;10.040;2023-07-24T13:58:28;2.33;;;2.10;;
35679;SDS011;21803;53.586;10.040;2023-07-24T14:00:54;2.05;;;1.67;;
35679;SDS011;21803;53.586;10.040;2023-07-24T14:03:19;1.85;;;1.63;;
35679;SDS011;21803;53.586;10.040;2023-07-24T14:05:45;2.25;;;1.80;;
35679;SDS011;21803;53.586;10.040;2023-07-24T14:08:10;2.10;;;1.88;;
35679;SDS011;21803;53.586;10.040;2023-07-24T14:10:36;1.90;;;1.65;;
35679;SDS011;21803;53.586;10.040;2023-07-24T14:13:02;1.80;;;1.70;;
35679;SDS011;21803;53.586;10.040;2023-07-24T14:15:28;2.08;;;1.77;;
35679;SDS011;21803;53.586;10.040;2023-07-24T14:17:54;2.28;;;1.83;;
35679;SDS011;21803;53.586;10.040;2023-07-24T14:20:20;2.08;;;1.77;;
35679;SDS011;21803;53.586;10.040;2023-07-24T14:22:45;1.83;;;1.60;;
35679;SDS011;21803;53.586;10.040;2023-07-24T14:25:11;2.63;;;1.80;;
35679;SDS011;21803;53.586;10.040;2023-07-24T14:27:36;2.65;;;1.70;;
35679;SDS011;21803;53.586;10.040;2023-07-24T14:30:02;1.75;;;1.65;;
35679;SDS011;21803;53.586;10.040;2023-07-24T14:32:28;2.00;;;1.70;;
35679;SDS011;21803;53.586;10.040;2023-07-24T14:34:53;1.65;;;1.50;;
35679;SDS011;21803;53.586;10.040;2023-07-24T14:37:19;2.55;;;1.75;;
35679;SDS011;21803;53.586;10.040;2023-07-24T14:39:45;1.90;;;1.60;;
35679;SDS011;21803;53.586;10.040;2023-07-24T14:42:11;2.70;;;1.70;;
35679;SDS011;21803;53.586;10.040;2023-07-24T14:44:37;1.70;;;1.50;;
35679;SDS011;21803;53.586;10.040;2023-07-24T14:47:02;1.63;;;1.52;;
35679;SDS011;21803;53.586;10.040;2023-07-24T14:49:28;1.90;;;1.55;;
35679;SDS011;21803;53.586;10.040;2023-07-24T14:51:53;1.90;;;1.70;;
35679;SDS011;21803;53.586;10.040;2023-07-24T14:54:19;1.77;;;1.55;;
35679;SDS011;21803;53.586;10.040;2023-07-24T14:56:44;1.88;;;1.63;;
35679;SDS011;21803;53.586;10.040;2023-07-24T14:59:10;2.95;;;1.85;;
35679;SDS011;21803;53.586;10.040;2023-07-24T15:01:35;2.22;;;2.00;;
35679;SDS011;21803;53.586;10.040;2023-07-24T15:04:01;1.67;;;1.52;;
35679;SDS011;21803;53.586;10.040;2023-07-24T15:06:26;1.85;;;1.48;;
35679;SDS011;21803;53.586;10.040;2023-07-24T15:08:52;2.53;;;1.58;;
35679;SDS011;21803;53.586;10.040;2023-07-24T15:11:24;1.65;;;1.55;;
35679;SDS011;21803;53.586;10.040;2023-07-24T15:13:50;1.90;;;1.75;;
35679;SDS011;21803;53.586;10.040;2023-07-24T15:16:17;1.80;;;1.50;;
35679;SDS011;21803;53.586;10.040;2023-07-24T15:18:42;1.60;;;1.50;;
35679;SDS011;21803;53.586;10.040;2023-07-24T15:21:08;1.83;;;1.50;;
35679;SDS011;21803;53.586;10.040;2023-07-24T15:23:34;1.70;;;1.55;;
35679;SDS011;21803;53.586;10.040;2023-07-24T15:26:00;1.90;;;1.70;;
35679;SDS011;21803;53.586;10.040;2023-07-24T15:28:26;1.88;;;1.67;;
35679;SDS011;21803;53.586;10.040;2023-07-24T15:30:51;1.65;;;1.48;;
35679;SDS011;21803;53.586;10.040;2023-07-24T15:33:17;1.90;;;1.65;;
35679;SDS011;21803;53.586;10.040;2023-07-24T15:35:43;1.60;;;1.50;;
35679;SDS011;21803;53.586;10.040;2023-07-24T15:38:08;1.58;;;1.48;;
35679;SDS011;21803;53.586;10.040;2023-07-24T15:40:34;1.60;;;1.50;;
35679;SDS011;21803;53.586;10.040;2023-07-24T15:42:59;2.65;;;1.40;;
35679;SDS011;21803;53.586;10.040;2023-07-24T15:45:25;2.70;;;1.42;;
35679;SDS011;21803;53.586;10.040;2023-07-24T15:47:51;1.90;;;1.50;;
35679;SDS011;21803;53.586;10.040;2023-07-24T15:50:16;1.60;;;1.50;;
35679;SDS011;21803;53.586;10.040;2023-07-24T15:52:42;1.70;;;1.50;;
35679;SDS011;21803;53.586;10.040;2023-07-24T15:55:07;1.70;;;1.60;;
35679;SDS011;21803;53.586;10.040;2023-07-24T15:57:33;1.42;;;1.33;;
35679;SDS011;21803;53.586;10.040;2023-07-24T15:59:58;1.50;;;1.40;;
35679;SDS011;21803;53.586;10.040;2023-07-24T16:02:24;1.60;;;1.30;;
35679;SDS011;21803;53.586;10.040;2023-07-24T16:04:50;1.70;;;1.55;;
35679;SDS011;21803;53.586;10.040;2023-07-24T16:07:17;1.50;;;1.40;;
35679;SDS011;21803;53.586;10.040;2023-07-24T16:09:42;1.50;;;1.40;;
35679;SDS011;21803;53.586;10.040;2023-07-24T16:12:08;1.80;;;1.55;;
35679;SDS011;21803;53.586;10.040;2023-07-24T16:14:33;1.73;;;1.60;;
35679;SDS011;21803;53.586;10.040;2023-07-24T16:16:59;1.50;;;1.40;;
35679;SDS011;21803;53.586;10.040;2023-07-24T16:19:24;1.50;;;1.23;;
35679;SDS011;21803;53.586;10.040;2023-07-24T16:21:50;1.50;;;1.40;;
35679;SDS011;21803;53.586;10.040;2023-07-24T16:24:16;1.63;;;1.30;;
35679;SDS011;21803;53.586;10.040;2023-07-24T16:26:42;1.50;;;1.30;;
35679;SDS011;21803;53.586;10.040;2023-07-24T16:29:08;1.60;;;1.50;;
35679;SDS011;21803;53.586;10.040;2023-07-24T16:31:34;1.85;;;1.42;;
35679;SDS011;21803;53.586;10.040;2023-07-24T16:34:00;1.60;;;1.50;;
35679;SDS011;21803;53.586;10.040;2023-07-24T16:36:26;1.30;;;1.20;;
35679;SDS011;21803;53.586;10.040;2023-07-24T16:38:51;1.50;;;1.40;;
35679;SDS011;21803;53.586;10.040;2023-07-24T16:41:17;1.80;;;1.55;;
35679;SDS011;21803;53.586;10.040;2023-07-24T16:43:43;1.65;;;1.45;;
35679;SDS011;21803;53.586;10.040;2023-07-24T16:46:09;1.42;;;1.20;;
35679;SDS011;21803;53.586;10.040;2023-07-24T16:48:34;2.70;;;1.33;;
35679;SDS011;21803;53.586;10.040;2023-07-24T16:51:00;1.85;;;1.40;;
35679;SDS011;21803;53.586;10.040;2023-07-24T16:53:25;1.63;;;1.23;;
35679;SDS011;21803;53.586;10.040;2023-07-24T16:55:51;3.10;;;1.25;;
35679;SDS011;21803;53.586;10.040;2023-07-24T16:58:16;1.73;;;1.30;;
35679;SDS011;21803;53.586;10.040;2023-07-24T17:00:42;1.38;;;1.20;;
35679;SDS011;21803;53.586;10.040;2023-07-24T17:03:08;1.30;;;1.20;;
35679;SDS011;21803;53.586;10.040;2023-07-24T17:05:33;1.60;;;1.30;;
35679;SDS011;21803;53.586;10.040;2023-07-24T17:07:59;1.40;;;1.30;;
35679;SDS011;21803;53.586;10.040;2023-07-24T17:10:25;1.17;;;1.08;;
35679;SDS011;21803;53.586;10.040;2023-07-24T17:12:50;1.60;;;1.38;;
35679;SDS011;21803;53.586;10.040;2023-07-24T17:15:16;2.25;;;1.50;;
35679;SDS011;21803;53.586;10.040;2023-07-24T17:17:41;1.77;;;1.30;;
35679;SDS011;21803;53.586;10.040;2023-07-24T17:20:09;1.63;;;1.50;;
35679;SDS011;21803;53.586;10.040;2023-07-24T17:22:34;1.63;;;1.35;;
35679;SDS011;21803;53.586;10.040;2023-07-24T17:25:01;1.38;;;1.20;;
35679;SDS011;21803;53.586;10.040;2023-07-24T17:27:26;1.60;;;1.10;;
35679;SDS011;21803;53.586;10.040;2023-07-24T17:29:54;1.45;;;1.30;;
35679;SDS011;21803;53.586;10.040;2023-07-24T17:32:20;2.17;;;1.50;;
35679;SDS011;21803;53.586;10.040;2023-07-24T17:34:47;1.55;;;1.38;;
35679;SDS011;21803;53.586;10.040;2023-07-24T17:37:13;1.75;;;1.20;;
35679;SDS011;21803;53.586;10.040;2023-07-24T17:39:38;1.38;;;1.27;;
35679;SDS011;21803;53.586;10.040;2023-07-24T17:42:04;2.05;;;1.60;;
35679;SDS011;21803;53.586;10.040;2023-07-24T17:44:29;1.38;;;1.20;;
35679;SDS011;21803;53.586;10.040;2023-07-24T17:46:55;1.45;;;1.35;;
35679;SDS011;21803;53.586;10.040;2023-07-24T17:49:20;1.38;;;1.25;;
35679;SDS011;21803;53.586;10.040;2023-07-24T17:51:46;1.38;;;1.20;;
35679;SDS011;21803;53.586;10.040;2023-07-24T17:54:11;1.23;;;1.13;;
35679;SDS011;21803;53.586;10.040;2023-07-24T17:56:37;2.35;;;1.10;;
35679;SDS011;21803;53.586;10.040;2023-07-24T17:59:02;1.63;;;1.40;;
35679;SDS011;21803;53.586;10.040;2023-07-24T18:01:28;1.70;;;1.35;;
35679;SDS011;21803;53.586;10.040;2023-07-24T18:03:53;1.35;;;1.10;;
35679;SDS011;21803;53.586;10.040;2023-07-24T18:06:19;1.35;;;1.20;;
35679;SDS011;21803;53.586;10.040;2023-07-24T18:08:44;1.23;;;1.13;;
35679;SDS011;21803;53.586;10.040;2023-07-24T18:11:10;1.40;;;1.17;;
35679;SDS011;21803;53.586;10.040;2023-07-24T18:13:35;1.48;;;1.10;;
35679;SDS011;21803;53.586;10.040;2023-07-24T18:16:01;1.40;;;1.30;;
35679;SDS011;21803;53.586;10.040;2023-07-24T18:18:26;1.80;;;1.15;;
35679;SDS011;21803;53.586;10.040;2023-07-24T18:20:52;1.30;;;1.20;;
35679;SDS011;21803;53.586;10.040;2023-07-24T18:23:19;1.38;;;1.20;;
35679;SDS011;21803;53.586;10.040;2023-07-24T18:25:45;1.70;;;1.20;;
35679;SDS011;21803;53.586;10.040;2023-07-24T18:28:10;1.27;;;1.17;;
35679;SDS011;21803;53.586;10.040;2023-07-24T18:30:37;1.27;;;1.10;;
35679;SDS011;21803;53.586;10.040;2023-07-24T18:33:02;1.45;;;1.17;;